sensor_id;sensor_type;location;lat;lon;timestamp;pressure;altitude;pressure_sealevel;temperature;humidity
31088;BME280;17745;55.914;37.554;2022-10-16T00:00:08;100314.34;;;9.51;46.69
31088;BME280;17745;55.914;37.554;2022-10-16T00:03:09;100317.66;;;9.46;46.81
31088;BME280;17745;55.914;37.554;2022-10-16T00:05:42;100325.78;;;9.44;46.81
31088;BME280;17745;55.914;37.554;2022-10-16T00:08:12;100322.78;;;9.41;46.88
31088;BME280;17745;55.914;37.554;2022-10-16T00:10:40;100323.19;;;9.38;46.98
31088;BME280;17745;55.914;37.554;2022-10-16T00:13:12;100330.31;;;9.37;47.01
31088;BME280;17745;55.914;37.554;2022-10-16T00:15:42;100332.37;;;9.35;47.02
31088;BME280;17745;55.914;37.554;2022-10-16T00:18:13;100332.37;;;9.35;47.06
31088;BME280;17745;55.914;37.554;2022-10-16T00:20:43;100329.94;;;9.34;47.07
31088;BME280;17745;55.914;37.554;2022-10-16T00:23:31;100335.47;;;9.32;47.11
31088;BME280;17745;55.914;37.554;2022-10-16T00:26:04;100334.25;;;9.28;47.15
31088;BME280;17745;55.914;37.554;2022-10-16T00:28:34;100339.53;;;9.28;47.22
31088;BME280;17745;55.914;37.554;2022-10-16T00:31:11;100337.91;;;9.27;47.24
31088;BME280;17745;55.914;37.554;2022-10-16T00:33:49;100334.69;;;9.25;47.32
31088;BME280;17745;55.914;37.554;2022-10-16T00:36:32;100338.59;;;9.22;47.38
31088;BME280;17745;55.914;37.554;2022-10-16T00:39:04;100342.44;;;9.20;47.43
31088;BME280;17745;55.914;37.554;2022-10-16T00:41:39;100347.16;;;9.18;47.44
31088;BME280;17745;55.914;37.554;2022-10-16T00:44:43;100346.75;;;9.14;47.50
31088;BME280;17745;55.914;37.554;2022-10-16T00:47:18;100351.84;;;9.15;47.62
31088;BME280;17745;55.914;37.554;2022-10-16T00:49:59;100346.38;;;9.10;47.67
31088;BME280;17745;55.914;37.554;2022-10-16T00:52:43;100343.94;;;9.09;47.77
31088;BME280;17745;55.914;37.554;2022-10-16T00:55:15;100349.03;;;9.10;47.71
31088;BME280;17745;55.914;37.554;2022-10-16T00:57:55;100352.06;;;9.07;47.76
31088;BME280;17745;55.914;37.554;2022-10-16T01:00:28;100342.53;;;9.06;47.82
31088;BME280;17745;55.914;37.554;2022-10-16T01:03:02;100350.09;;;9.03;47.92
31088;BME280;17745;55.914;37.554;2022-10-16T01:05:49;100357.44;;;9.00;47.98
31088;BME280;17745;55.914;37.554;2022-10-16T01:09:15;100360.28;;;8.99;48.09
31088;BME280;17745;55.914;37.554;2022-10-16T01:11:57;100356.44;;;8.95;48.09
31088;BME280;17745;55.914;37.554;2022-10-16T01:14:43;100359.50;;;8.92;48.20
31088;BME280;17745;55.914;37.554;2022-10-16T01:17:37;100358.28;;;8.87;48.29
31088;BME280;17745;55.914;37.554;2022-10-16T01:20:11;100353.44;;;8.84;48.34
31088;BME280;17745;55.914;37.554;2022-10-16T01:23:01;100359.97;;;8.82;48.37
31088;BME280;17745;55.914;37.554;2022-10-16T01:29:54;100355.91;;;8.79;48.45
31088;BME280;17745;55.914;37.554;2022-10-16T01:32:32;100364.47;;;8.75;48.48
31088;BME280;17745;55.914;37.554;2022-10-16T01:35:04;100363.06;;;8.72;48.57
31088;BME280;17745;55.914;37.554;2022-10-16T01:37:46;100373.03;;;8.70;48.67
31088;BME280;17745;55.914;37.554;2022-10-16T01:40:18;100370.41;;;8.70;48.72
31088;BME280;17745;55.914;37.554;2022-10-16T01:42:53;100376.06;;;8.67;48.74
31088;BME280;17745;55.914;37.554;2022-10-16T01:45:30;100374.47;;;8.66;48.84
31088;BME280;17745;55.914;37.554;2022-10-16T01:48:14;100370.44;;;8.63;48.87
31088;BME280;17745;55.914;37.554;2022-10-16T01:50:55;100368.81;;;8.62;48.86
31088;BME280;17745;55.914;37.554;2022-10-16T01:53:26;100374.09;;;8.62;48.93
31088;BME280;17745;55.914;37.554;2022-10-16T01:55:58;100374.72;;;8.57;48.95
31088;BME280;17745;55.914;37.554;2022-10-16T01:58:30;100378.38;;;8.56;48.96
31088;BME280;17745;55.914;37.554;2022-10-16T02:01:05;100376.16;;;8.53;49.01
31088;BME280;17745;55.914;37.554;2022-10-16T02:03:38;100372.91;;;8.51;49.02
31088;BME280;17745;55.914;37.554;2022-10-16T02:06:12;100372.28;;;8.49;49.00
31088;BME280;17745;55.914;37.554;2022-10-16T02:08:41;100370.28;;;8.44;49.06
31088;BME280;17745;55.914;37.554;2022-10-16T02:11:11;100372.72;;;8.39;49.16
31088;BME280;17745;55.914;37.554;2022-10-16T02:13:44;100372.13;;;8.37;49.28
31088;BME280;17745;55.914;37.554;2022-10-16T02:16:16;100372.94;;;8.38;49.34
31088;BME280;17745;55.914;37.554;2022-10-16T02:18:47;100366.22;;;8.35;49.32
31088;BME280;17745;55.914;37.554;2022-10-16T02:21:20;100373.53;;;8.33;49.38
31088;BME280;17745;55.914;37.554;2022-10-16T02:23:55;100371.94;;;8.32;49.50
31088;BME280;17745;55.914;37.554;2022-10-16T02:26:29;100374.78;;;8.30;49.59
31088;BME280;17745;55.914;37.554;2022-10-16T02:29:00;100374.19;;;8.28;49.64
31088;BME280;17745;55.914;37.554;2022-10-16T02:31:35;100368.09;;;8.28;49.65
31088;BME280;17745;55.914;37.554;2022-10-16T02:34:08;100370.72;;;8.28;49.70
31088;BME280;17745;55.914;37.554;2022-10-16T02:36:39;100375.22;;;8.27;49.79
31088;BME280;17745;55.914;37.554;2022-10-16T02:39:10;100377.84;;;8.27;49.76
31088;BME280;17745;55.914;37.554;2022-10-16T02:41:39;100385.97;;;8.26;49.75
31088;BME280;17745;55.914;37.554;2022-10-16T02:44:07;100382.50;;;8.25;49.75
31088;BME280;17745;55.914;37.554;2022-10-16T02:46:44;100381.69;;;8.25;49.75
31088;BME280;17745;55.914;37.554;2022-10-16T02:52:59;100378.66;;;8.21;49.90
31088;BME280;17745;55.914;37.554;2022-10-16T02:55:34;100387.81;;;8.19;49.86
31088;BME280;17745;55.914;37.554;2022-10-16T02:58:05;100381.12;;;8.16;49.88
31088;BME280;17745;55.914;37.554;2022-10-16T03:00:34;100382.94;;;8.15;49.89
31088;BME280;17745;55.914;37.554;2022-10-16T03:03:05;100382.56;;;8.12;49.94
31088;BME280;17745;55.914;37.554;2022-10-16T03:05:34;100388.03;;;8.10;50.01
31088;BME280;17745;55.914;37.554;2022-10-16T03:08:04;100391.91;;;8.08;50.15
31088;BME280;17745;55.914;37.554;2022-10-16T03:10:32;100393.72;;;8.07;50.18
31088;BME280;17745;55.914;37.554;2022-10-16T03:13:01;100396.34;;;8.07;50.18
31088;BME280;17745;55.914;37.554;2022-10-16T03:15:30;100396.34;;;8.07;50.23
31088;BME280;17745;55.914;37.554;2022-10-16T03:18:01;100396.34;;;8.07;50.29
31088;BME280;17745;55.914;37.554;2022-10-16T03:20:31;100397.19;;;8.08;50.29
31088;BME280;17745;55.914;37.554;2022-10-16T03:23:04;100409.72;;;8.06;50.28
31088;BME280;17745;55.914;37.554;2022-10-16T03:25:56;100400.41;;;8.03;50.31
31088;BME280;17745;55.914;37.554;2022-10-16T03:28:27;100400.00;;;7.99;50.40
31088;BME280;17745;55.914;37.554;2022-10-16T03:30:56;100401.25;;;7.97;50.48
31088;BME280;17745;55.914;37.554;2022-10-16T03:33:24;100403.06;;;7.96;50.46
31088;BME280;17745;55.914;37.554;2022-10-16T03:35:54;100400.84;;;7.93;50.57
31088;BME280;17745;55.914;37.554;2022-10-16T03:38:23;100413.00;;;7.94;50.61
31088;BME280;17745;55.914;37.554;2022-10-16T03:40:51;100410.78;;;7.91;50.64
31088;BME280;17745;55.914;37.554;2022-10-16T03:43:20;100409.16;;;7.90;50.67
31088;BME280;17745;55.914;37.554;2022-10-16T03:45:50;100408.34;;;7.90;50.71
31088;BME280;17745;55.914;37.554;2022-10-16T03:48:19;100408.56;;;7.88;50.73
31088;BME280;17745;55.914;37.554;2022-10-16T03:50:48;100404.50;;;7.85;50.75
31088;BME280;17745;55.914;37.554;2022-10-16T03:53:26;100413.44;;;7.84;50.77
31088;BME280;17745;55.914;37.554;2022-10-16T03:55:58;100411.81;;;7.83;50.86
31088;BME280;17745;55.914;37.554;2022-10-16T03:58:27;100414.62;;;7.82;50.82
31088;BME280;17745;55.914;37.554;2022-10-16T04:00:55;100414.62;;;7.82;50.84
31088;BME280;17745;55.914;37.554;2022-10-16T04:03:23;100414.03;;;7.80;50.92
31088;BME280;17745;55.914;37.554;2022-10-16T04:05:51;100415.88;;;7.79;50.94
31088;BME280;17745;55.914;37.554;2022-10-16T04:08:19;100409.78;;;7.79;50.96
31088;BME280;17745;55.914;37.554;2022-10-16T04:10:52;100412.63;;;7.77;50.95
31088;BME280;17745;55.914;37.554;2022-10-16T04:13:29;100409.16;;;7.77;51.04
31088;BME280;17745;55.914;37.554;2022-10-16T04:16:24;100414.44;;;7.77;51.04
31088;BME280;17745;55.914;37.554;2022-10-16T04:18:53;100410.78;;;7.78;51.07
31088;BME280;17745;55.914;37.554;2022-10-16T04:21:23;100416.06;;;7.78;51.08
31088;BME280;17745;55.914;37.554;2022-10-16T04:24:38;100411.81;;;7.77;51.20
31088;BME280;17745;55.914;37.554;2022-10-16T04:39:04;100416.06;;;7.91;51.03
31088;BME280;17745;55.914;37.554;2022-10-16T04:41:55;100422.72;;;7.94;51.03
31088;BME280;17745;55.914;37.554;2022-10-16T04:44:47;100423.56;;;7.94;51.08
31088;BME280;17745;55.914;37.554;2022-10-16T04:47:57;100421.53;;;7.96;51.06
31088;BME280;17745;55.914;37.554;2022-10-16T04:51:43;100429.63;;;8.01;51.10
31088;BME280;17745;55.914;37.554;2022-10-16T05:17:02;100438.31;;;8.36;50.68
31088;BME280;17745;55.914;37.554;2022-10-16T05:19:59;100443.56;;;8.42;50.65
31088;BME280;17745;55.914;37.554;2022-10-16T05:22:33;100443.16;;;8.46;50.62
31088;BME280;17745;55.914;37.554;2022-10-16T05:25:07;100442.12;;;8.47;50.67
31088;BME280;17745;55.914;37.554;2022-10-16T05:27:35;100444.56;;;8.48;50.67
31088;BME280;17745;55.914;37.554;2022-10-16T05:30:06;100432.59;;;8.52;50.66
31088;BME280;17745;55.914;37.554;2022-10-16T05:32:41;100444.16;;;8.58;50.51
31088;BME280;17745;55.914;37.554;2022-10-16T05:35:29;100443.31;;;8.64;50.50
31088;BME280;17745;55.914;37.554;2022-10-16T05:38:17;100450.19;;;8.72;50.36
31088;BME280;17745;55.914;37.554;2022-10-16T05:41:11;100448.97;;;8.75;50.40
31088;BME280;17745;55.914;37.554;2022-10-16T05:44:25;100449.34;;;8.78;50.31
31088;BME280;17745;55.914;37.554;2022-10-16T05:47:14;100461.28;;;8.87;50.23
31088;BME280;17745;55.914;37.554;2022-10-16T05:50:26;100455.38;;;8.92;50.11
31088;BME280;17745;55.914;37.554;2022-10-16T05:53:01;100456.94;;;9.07;49.89
31088;BME280;17745;55.914;37.554;2022-10-16T05:55:31;100463.41;;;9.18;49.76
31088;BME280;17745;55.914;37.554;2022-10-16T05:58:31;100458.44;;;9.28;49.60
31088;BME280;17745;55.914;37.554;2022-10-16T06:01:21;100463.94;;;9.33;49.49
31088;BME280;17745;55.914;37.554;2022-10-16T06:04:02;100459.81;;;9.37;49.56
31088;BME280;17745;55.914;37.554;2022-10-16T06:06:39;100462.44;;;9.44;49.52
31088;BME280;17745;55.914;37.554;2022-10-16T06:09:24;100464.00;;;9.52;49.35
31088;BME280;17745;55.914;37.554;2022-10-16T06:11:57;100465.94;;;9.63;49.33
31088;BME280;17745;55.914;37.554;2022-10-16T06:14:33;100460.19;;;9.73;49.18
31088;BME280;17745;55.914;37.554;2022-10-16T06:17:22;100466.25;;;9.80;49.03
31088;BME280;17745;55.914;37.554;2022-10-16T06:19:54;100464.34;;;9.87;48.96
31088;BME280;17745;55.914;37.554;2022-10-16T06:22:32;100468.56;;;9.95;48.73
31088;BME280;17745;55.914;37.554;2022-10-16T06:25:05;100452.62;;;10.02;48.54
31088;BME280;17745;55.914;37.554;2022-10-16T06:27:35;100456.91;;;10.03;48.57
31088;BME280;17745;55.914;37.554;2022-10-16T06:30:11;100465.78;;;10.09;48.43
31088;BME280;17745;55.914;37.554;2022-10-16T06:32:40;100462.50;;;10.13;48.35
31088;BME280;17745;55.914;37.554;2022-10-16T06:35:14;100464.63;;;10.23;48.21
31088;BME280;17745;55.914;37.554;2022-10-16T06:37:47;100465.53;;;10.36;48.01
31088;BME280;17745;55.914;37.554;2022-10-16T06:40:26;100458.94;;;10.45;47.88
31088;BME280;17745;55.914;37.554;2022-10-16T06:43:16;100464.75;;;10.54;47.73
31088;BME280;17745;55.914;37.554;2022-10-16T06:45:54;100464.47;;;10.62;47.77
31088;BME280;17745;55.914;37.554;2022-10-16T06:48:28;100466.75;;;10.77;47.62
31088;BME280;17745;55.914;37.554;2022-10-16T06:51:03;100469.66;;;10.87;47.39
31088;BME280;17745;55.914;37.554;2022-10-16T06:53:36;100472.38;;;10.99;47.31
31088;BME280;17745;55.914;37.554;2022-10-16T07:03:19;100469.34;;;11.14;46.73
31088;BME280;17745;55.914;37.554;2022-10-16T07:06:58;100472.13;;;11.20;46.42
31088;BME280;17745;55.914;37.554;2022-10-16T07:21:50;100477.06;;;11.70;45.93
31088;BME280;17745;55.914;37.554;2022-10-16T07:25:16;100476.78;;;11.91;45.83
31088;BME280;17745;55.914;37.554;2022-10-16T07:28:38;100468.03;;;12.02;45.45
31088;BME280;17745;55.914;37.554;2022-10-16T07:35:22;100480.84;;;12.17;44.96
31088;BME280;17745;55.914;37.554;2022-10-16T07:37:53;100481.75;;;12.11;44.78
31088;BME280;17745;55.914;37.554;2022-10-16T07:44:00;100475.41;;;12.24;44.59
31088;BME280;17745;55.914;37.554;2022-10-16T07:47:36;100481.78;;;12.35;44.40
31088;BME280;17745;55.914;37.554;2022-10-16T07:50:13;100476.75;;;12.50;44.29
31088;BME280;17745;55.914;37.554;2022-10-16T07:52:43;100478.59;;;12.62;43.97
31088;BME280;17745;55.914;37.554;2022-10-16T07:55:14;100480.09;;;12.69;43.87
31088;BME280;17745;55.914;37.554;2022-10-16T07:57:42;100477.75;;;12.73;43.69
31088;BME280;17745;55.914;37.554;2022-10-16T08:00:27;100481.94;;;12.69;43.60
31088;BME280;17745;55.914;37.554;2022-10-16T08:02:59;100488.28;;;12.68;43.34
31088;BME280;17745;55.914;37.554;2022-10-16T08:05:33;100493.69;;;12.73;43.46
31088;BME280;17745;55.914;37.554;2022-10-16T08:08:02;100486.16;;;12.82;43.26
31088;BME280;17745;55.914;37.554;2022-10-16T08:10:35;100488.13;;;12.86;42.81
31088;BME280;17745;55.914;37.554;2022-10-16T08:13:05;100496.66;;;12.89;42.43
31088;BME280;17745;55.914;37.554;2022-10-16T08:15:48;100493.22;;;12.88;42.49
31088;BME280;17745;55.914;37.554;2022-10-16T08:18:23;100481.16;;;12.97;42.52
31088;BME280;17745;55.914;37.554;2022-10-16T08:20:56;100486.69;;;13.08;42.23
31088;BME280;17745;55.914;37.554;2022-10-16T08:23:29;100480.75;;;13.18;42.05
31088;BME280;17745;55.914;37.554;2022-10-16T08:26:03;100487.69;;;13.19;41.96
31088;BME280;17745;55.914;37.554;2022-10-16T08:28:50;100479.69;;;13.19;41.70
31088;BME280;17745;55.914;37.554;2022-10-16T08:31:28;100481.31;;;13.20;41.50
31088;BME280;17745;55.914;37.554;2022-10-16T08:34:04;100477.91;;;13.24;41.75
31088;BME280;17745;55.914;37.554;2022-10-16T08:36:34;100474.19;;;13.37;41.37
31088;BME280;17745;55.914;37.554;2022-10-16T08:39:02;100468.13;;;13.42;41.25
31088;BME280;17745;55.914;37.554;2022-10-16T08:42:08;100474.41;;;13.36;41.03
31088;BME280;17745;55.914;37.554;2022-10-16T08:56:03;100469.53;;;13.44;40.88
31088;BME280;17745;55.914;37.554;2022-10-16T09:10:16;100467.06;;;13.72;40.24
31088;BME280;17745;55.914;37.554;2022-10-16T09:13:09;100474.00;;;13.73;39.97
31088;BME280;17745;55.914;37.554;2022-10-16T09:23:28;100459.62;;;13.74;39.77
31088;BME280;17745;55.914;37.554;2022-10-16T09:26:17;100464.06;;;13.85;39.70
31088;BME280;17745;55.914;37.554;2022-10-16T09:29:06;100463.50;;;14.00;39.31
31088;BME280;17745;55.914;37.554;2022-10-16T09:32:11;100470.16;;;14.03;39.13
31088;BME280;17745;55.914;37.554;2022-10-16T09:35:04;100459.84;;;14.07;38.96
31088;BME280;17745;55.914;37.554;2022-10-16T09:37:54;100460.63;;;14.07;38.96
31088;BME280;17745;55.914;37.554;2022-10-16T09:40:37;100465.78;;;14.14;39.01
31088;BME280;17745;55.914;37.554;2022-10-16T09:43:30;100457.41;;;14.22;38.63
31088;BME280;17745;55.914;37.554;2022-10-16T09:46:28;100457.69;;;14.26;38.60
31088;BME280;17745;55.914;37.554;2022-10-16T09:49:20;100451.09;;;14.28;38.45
31088;BME280;17745;55.914;37.554;2022-10-16T09:52:05;100451.22;;;14.39;38.29
31088;BME280;17745;55.914;37.554;2022-10-16T09:54:59;100451.47;;;14.37;38.38
31088;BME280;17745;55.914;37.554;2022-10-16T09:57:37;100444.34;;;14.43;38.39
31088;BME280;17745;55.914;37.554;2022-10-16T10:00:23;100441.56;;;14.55;38.29
31088;BME280;17745;55.914;37.554;2022-10-16T10:03:55;100426.34;;;14.55;37.83
31088;BME280;17745;55.914;37.554;2022-10-16T10:41:02;100429.59;;;14.80;36.50
31088;BME280;17745;55.914;37.554;2022-10-16T10:44:05;100422.53;;;14.91;36.44
31088;BME280;17745;55.914;37.554;2022-10-16T10:47:01;100431.19;;;15.03;36.37
31088;BME280;17745;55.914;37.554;2022-10-16T10:50:26;100411.75;;;15.08;36.38
31088;BME280;17745;55.914;37.554;2022-10-16T10:53:46;100413.56;;;15.02;36.22
31088;BME280;17745;55.914;37.554;2022-10-16T11:01:14;100415.25;;;15.13;36.09
31088;BME280;17745;55.914;37.554;2022-10-16T11:04:08;100410.03;;;15.24;36.07
31088;BME280;17745;55.914;37.554;2022-10-16T11:06:43;100408.47;;;15.28;35.93
31088;BME280;17745;55.914;37.554;2022-10-16T11:09:17;100416.97;;;15.25;35.94
31088;BME280;17745;55.914;37.554;2022-10-16T11:12:34;100407.28;;;15.19;35.89
31088;BME280;17745;55.914;37.554;2022-10-16T11:15:56;100390.38;;;15.73;35.26
31088;BME280;17745;55.914;37.554;2022-10-16T11:18:44;100403.75;;;17.21;33.17
31088;BME280;17745;55.914;37.554;2022-10-16T11:21:24;100395.28;;;18.26;31.69
31088;BME280;17745;55.914;37.554;2022-10-16T11:24:28;100401.91;;;18.90;30.62
31088;BME280;17745;55.914;37.554;2022-10-16T11:27:19;100397.06;;;19.32;30.10
31088;BME280;17745;55.914;37.554;2022-10-16T11:30:18;100397.94;;;19.81;29.47
31088;BME280;17745;55.914;37.554;2022-10-16T11:33:18;100384.00;;;20.47;28.79
31088;BME280;17745;55.914;37.554;2022-10-16T11:58:46;100381.56;;;21.22;26.93
31088;BME280;17745;55.914;37.554;2022-10-16T12:01:43;100383.72;;;21.06;27.01
31088;BME280;17745;55.914;37.554;2022-10-16T12:05:01;100383.22;;;21.04;27.02
31088;BME280;17745;55.914;37.554;2022-10-16T12:08:24;100383.09;;;20.95;27.06
31088;BME280;17745;55.914;37.554;2022-10-16T12:11:07;100392.72;;;21.15;26.59
31088;BME280;17745;55.914;37.554;2022-10-16T12:13:39;100392.72;;;21.15;26.65
31088;BME280;17745;55.914;37.554;2022-10-16T12:16:31;100388.19;;;21.43;26.57
31088;BME280;17745;55.914;37.554;2022-10-16T12:19:13;100378.56;;;21.70;26.16
31088;BME280;17745;55.914;37.554;2022-10-16T12:22:01;100381.31;;;21.37;26.26
31088;BME280;17745;55.914;37.554;2022-10-16T12:24:36;100379.63;;;21.08;26.52
31088;BME280;17745;55.914;37.554;2022-10-16T12:27:28;100369.53;;;21.00;26.49
31088;BME280;17745;55.914;37.554;2022-10-16T12:30:06;100357.53;;;20.92;26.49
31088;BME280;17745;55.914;37.554;2022-10-16T12:32:39;100368.09;;;21.22;26.49
31088;BME280;17745;55.914;37.554;2022-10-16T12:35:19;100369.59;;;21.89;26.00
31088;BME280;17745;55.914;37.554;2022-10-16T12:38:03;100360.31;;;22.09;25.51
31088;BME280;17745;55.914;37.554;2022-10-16T12:40:42;100369.31;;;21.77;25.66
31088;BME280;17745;55.914;37.554;2022-10-16T12:43:37;100366.16;;;21.08;26.24
31088;BME280;17745;55.914;37.554;2022-10-16T12:46:38;100372.97;;;20.67;26.32
31088;BME280;17745;55.914;37.554;2022-10-16T12:49:31;100365.38;;;20.50;26.60
31088;BME280;17745;55.914;37.554;2022-10-16T12:52:02;100362.34;;;20.57;26.62
31088;BME280;17745;55.914;37.554;2022-10-16T13:22:19;100368.06;;;20.31;27.10
31088;BME280;17745;55.914;37.554;2022-10-16T13:25:00;100371.69;;;20.21;27.21
31088;BME280;17745;55.914;37.554;2022-10-16T13:27:39;100358.00;;;19.98;27.57
31088;BME280;17745;55.914;37.554;2022-10-16T13:30:15;100366.06;;;19.98;27.67
31088;BME280;17745;55.914;37.554;2022-10-16T13:32:46;100375.47;;;20.20;27.50
31088;BME280;17745;55.914;37.554;2022-10-16T13:35:21;100365.31;;;20.17;27.52
31088;BME280;17745;55.914;37.554;2022-10-16T13:37:51;100368.16;;;20.02;27.71
31088;BME280;17745;55.914;37.554;2022-10-16T13:40:22;100360.47;;;19.65;28.01
31088;BME280;17745;55.914;37.554;2022-10-16T13:42:55;100352.47;;;18.61;29.00
31088;BME280;17745;55.914;37.554;2022-10-16T13:45:25;100359.53;;;17.60;30.27
31088;BME280;17745;55.914;37.554;2022-10-16T13:48:08;100356.06;;;16.87;31.21
31088;BME280;17745;55.914;37.554;2022-10-16T13:50:43;100356.22;;;16.34;32.08
31088;BME280;17745;55.914;37.554;2022-10-16T14:01:23;100365.22;;;15.26;33.69
31088;BME280;17745;55.914;37.554;2022-10-16T14:04:04;100359.13;;;14.98;34.20
31088;BME280;17745;55.914;37.554;2022-10-16T14:06:36;100365.66;;;14.85;34.54
31088;BME280;17745;55.914;37.554;2022-10-16T14:09:34;100367.44;;;14.74;34.73
31088;BME280;17745;55.914;37.554;2022-10-16T14:12:14;100364.94;;;14.67;34.93
31088;BME280;17745;55.914;37.554;2022-10-16T14:14:55;100372.56;;;14.58;35.13
31088;BME280;17745;55.914;37.554;2022-10-16T14:18:44;100368.25;;;14.52;35.25
31088;BME280;17745;55.914;37.554;2022-10-16T14:22:11;100364.66;;;14.41;35.54
31088;BME280;17745;55.914;37.554;2022-10-16T14:29:45;100364.97;;;14.23;36.00
31088;BME280;17745;55.914;37.554;2022-10-16T14:32:55;100362.44;;;14.11;36.10
31088;BME280;17745;55.914;37.554;2022-10-16T14:36:41;100359.72;;;14.06;36.43
31088;BME280;17745;55.914;37.554;2022-10-16T14:39:39;100364.88;;;13.95;36.75
31088;BME280;17745;55.914;37.554;2022-10-16T14:42:24;100364.28;;;13.88;36.90
31088;BME280;17745;55.914;37.554;2022-10-16T14:45:35;100363.41;;;13.82;37.16
31088;BME280;17745;55.914;37.554;2022-10-16T14:48:26;100373.47;;;13.80;37.37
31088;BME280;17745;55.914;37.554;2022-10-16T14:51:40;100371.53;;;13.76;37.42
31088;BME280;17745;55.914;37.554;2022-10-16T14:54:14;100380.03;;;13.72;37.54
31088;BME280;17745;55.914;37.554;2022-10-16T14:56:56;100381.25;;;13.65;37.72
31088;BME280;17745;55.914;37.554;2022-10-16T14:59:41;100378.84;;;13.63;37.77
31088;BME280;17745;55.914;37.554;2022-10-16T15:02:22;100380.13;;;13.61;37.82
31088;BME280;17745;55.914;37.554;2022-10-16T15:05:10;100371.25;;;13.55;38.02
31088;BME280;17745;55.914;37.554;2022-10-16T15:08:17;100373.34;;;13.53;38.17
31088;BME280;17745;55.914;37.554;2022-10-16T15:11:09;100377.88;;;13.52;38.17
31088;BME280;17745;55.914;37.554;2022-10-16T15:13:52;100375.16;;;13.47;38.29
31088;BME280;17745;55.914;37.554;2022-10-16T15:16:35;100379.87;;;13.45;38.44
31088;BME280;17745;55.914;37.554;2022-10-16T15:19:23;100384.62;;;13.43;38.52
31088;BME280;17745;55.914;37.554;2022-10-16T15:22:48;100378.50;;;13.42;38.54
31088;BME280;17745;55.914;37.554;2022-10-16T15:29:04;100372.06;;;13.38;38.70
31088;BME280;17745;55.914;37.554;2022-10-16T15:31:57;100369.63;;;13.37;38.78
31088;BME280;17745;55.914;37.554;2022-10-16T15:35:02;100373.81;;;13.33;38.90
31088;BME280;17745;55.914;37.554;2022-10-16T15:37:55;100370.59;;;13.30;38.94
31088;BME280;17745;55.914;37.554;2022-10-16T15:44:11;100372.84;;;13.22;39.25
31088;BME280;17745;55.914;37.554;2022-10-16T15:47:09;100356.91;;;13.22;39.30
31088;BME280;17745;55.914;37.554;2022-10-16T15:49:40;100364.31;;;13.20;39.31
31088;BME280;17745;55.914;37.554;2022-10-16T15:52:24;100373.34;;;13.19;39.45
31088;BME280;17745;55.914;37.554;2022-10-16T15:54:53;100359.16;;;13.13;39.55
31088;BME280;17745;55.914;37.554;2022-10-16T15:57:31;100350.34;;;13.12;39.55
31088;BME280;17745;55.914;37.554;2022-10-16T16:00:14;100343.41;;;13.11;39.64
31088;BME280;17745;55.914;37.554;2022-10-16T16:03:20;100344.31;;;13.00;39.94
31088;BME280;17745;55.914;37.554;2022-10-16T16:08:58;100344.63;;;13.04;39.80
31088;BME280;17745;55.914;37.554;2022-10-16T16:11:31;100354.22;;;13.05;39.77
31088;BME280;17745;55.914;37.554;2022-10-16T16:14:04;100349.37;;;13.01;39.84
31088;BME280;17745;55.914;37.554;2022-10-16T16:16:54;100357.84;;;12.98;39.90
31088;BME280;17745;55.914;37.554;2022-10-16T16:19:24;100365.03;;;12.98;39.95
31088;BME280;17745;55.914;37.554;2022-10-16T16:21:56;100370.22;;;12.93;40.12
31088;BME280;17745;55.914;37.554;2022-10-16T16:24:28;100365.97;;;12.92;40.07
31088;BME280;17745;55.914;37.554;2022-10-16T16:27:10;100361.69;;;12.91;40.13
31088;BME280;17745;55.914;37.554;2022-10-16T16:29:44;100364.34;;;12.91;40.18
31088;BME280;17745;55.914;37.554;2022-10-16T16:32:16;100376.72;;;12.85;40.21
31088;BME280;17745;55.914;37.554;2022-10-16T16:34:45;100375.38;;;12.82;40.31
31088;BME280;17745;55.914;37.554;2022-10-16T16:37:17;100376.34;;;12.76;40.42
31088;BME280;17745;55.914;37.554;2022-10-16T16:39:48;100374.25;;;12.78;40.34
31088;BME280;17745;55.914;37.554;2022-10-16T16:42:51;100373.91;;;12.75;40.43
31088;BME280;17745;55.914;37.554;2022-10-16T16:45:39;100375.16;;;12.72;40.54
31088;BME280;17745;55.914;37.554;2022-10-16T16:48:23;100369.06;;;12.71;40.48
31088;BME280;17745;55.914;37.554;2022-10-16T16:51:09;100367.44;;;12.70;40.57
31088;BME280;17745;55.914;37.554;2022-10-16T16:53:52;100364.47;;;12.67;40.64
31088;BME280;17745;55.914;37.554;2022-10-16T17:21:04;100366.13;;;12.56;40.98
31088;BME280;17745;55.914;37.554;2022-10-16T17:23:36;100362.31;;;12.52;41.00
31088;BME280;17745;55.914;37.554;2022-10-16T17:26:07;100361.97;;;12.48;40.97
31088;BME280;17745;55.914;37.554;2022-10-16T17:28:39;100369.59;;;12.44;40.97
31088;BME280;17745;55.914;37.554;2022-10-16T17:31:09;100358.09;;;12.39;40.98
31088;BME280;17745;55.914;37.554;2022-10-16T17:33:37;100364.59;;;12.31;41.25
31088;BME280;17745;55.914;37.554;2022-10-16T17:36:13;100357.28;;;12.38;41.09
31088;BME280;17745;55.914;37.554;2022-10-16T17:39:06;100351.75;;;12.40;41.04
31088;BME280;17745;55.914;37.554;2022-10-16T17:42:03;100359.94;;;12.38;41.06
31088;BME280;17745;55.914;37.554;2022-10-16T17:44:50;100373.47;;;12.37;41.13
31088;BME280;17745;55.914;37.554;2022-10-16T17:47:21;100362.50;;;12.33;41.15
31088;BME280;17745;55.914;37.554;2022-10-16T17:53:55;100365.38;;;12.32;41.16
31088;BME280;17745;55.914;37.554;2022-10-16T18:23:59;100370.25;;;11.99;41.55
31088;BME280;17745;55.914;37.554;2022-10-16T18:29:26;100374.19;;;11.96;41.64
31088;BME280;17745;55.914;37.554;2022-10-16T18:31:58;100373.38;;;11.96;41.64
31088;BME280;17745;55.914;37.554;2022-10-16T18:34:33;100377.28;;;11.93;41.69